Hundvaag 1 weather for Sep 1998
Month no. 135
Obs.
Da.
Temp. Dew Point Precip. Wind
Speed
Wind gusts Cloud cover Press. Humidity Wind dir. Sunny OPT
01.09.1998 11,6   1,0     6       1  
02.09.1998 11,6   0,0     4       1  
03.09.1998 10,1   0,0     9       1  
04.09.1998 11,0   0,0     6       1  
05.09.1998 14,2   0,0     1          
06.09.1998 13,6   1,0     0          
07.09.1998 15,5   0,0     0          
08.09.1998 15,6   0,0     3          
09.09.1998 14,4   9,0     0          
10.09.1998 14,3   27,0     0          
11.09.1998 13,3   10,0     0       1  
12.09.1998 12,7   25,0     0       1  
13.09.1998 12,4   1,0     2       1  
14.09.1998 12,7   0,0     0          
15.09.1998 13,7   7,0     0       1  
16.09.1998 9,1   12,0     7       1  
17.09.1998 9,7   2,0     7          
18.09.1998 9,4   0,0     3       1  
19.09.1998 9,0   1,0     8       1  
20.09.1998 9,4   0,0     9          
21.09.1998 12,4   0,0     0       1  
22.09.1998 13,3   0,0     0          
23.09.1998 11,6   0,0     0       1  
24.09.1998 11,9   0,0     0          
25.09.1998 12,1   0,0     0          
26.09.1998 12,4   0,0     1          
27.09.1998 12,4   0,0     0          
28.09.1998 12,4   0,0     0          
29.09.1998 12,9   3,0     0          
30.09.1998 13,0   6,0     0       1  
                       
Avrg/Sum 12,3   105,0     2,2       14